sensor_id;sensor_type;location;lat;lon;timestamp;P1;durP1;ratioP1;P2;durP2;ratioP2
14052;SDS011;7101;51.600;7.310;2024-01-06T00:02:02;10.07;;;6.57;;
14052;SDS011;7101;51.600;7.310;2024-01-06T00:04:29;7.50;;;5.25;;
14052;SDS011;7101;51.600;7.310;2024-01-06T00:06:56;8.95;;;5.10;;
14052;SDS011;7101;51.600;7.310;2024-01-06T00:09:23;8.07;;;5.88;;
14052;SDS011;7101;51.600;7.310;2024-01-06T00:11:49;8.15;;;5.78;;
14052;SDS011;7101;51.600;7.310;2024-01-06T00:14:16;8.80;;;5.90;;
14052;SDS011;7101;51.600;7.310;2024-01-06T00:16:43;9.85;;;5.53;;
14052;SDS011;7101;51.600;7.310;2024-01-06T00:19:11;9.98;;;5.45;;
14052;SDS011;7101;51.600;7.310;2024-01-06T00:21:38;6.95;;;5.03;;
14052;SDS011;7101;51.600;7.310;2024-01-06T00:24:05;8.77;;;6.15;;
14052;SDS011;7101;51.600;7.310;2024-01-06T00:26:32;8.43;;;5.30;;
14052;SDS011;7101;51.600;7.310;2024-01-06T00:28:59;10.20;;;6.20;;
14052;SDS011;7101;51.600;7.310;2024-01-06T00:31:25;14.25;;;7.10;;
14052;SDS011;7101;51.600;7.310;2024-01-06T00:33:52;12.88;;;6.93;;
14052;SDS011;7101;51.600;7.310;2024-01-06T00:36:20;11.05;;;7.03;;
14052;SDS011;7101;51.600;7.310;2024-01-06T00:38:48;16.25;;;8.38;;
14052;SDS011;7101;51.600;7.310;2024-01-06T00:41:15;12.73;;;7.75;;
14052;SDS011;7101;51.600;7.310;2024-01-06T00:43:42;13.23;;;6.93;;
14052;SDS011;7101;51.600;7.310;2024-01-06T00:46:08;12.70;;;7.20;;
14052;SDS011;7101;51.600;7.310;2024-01-06T00:48:35;12.15;;;6.95;;
14052;SDS011;7101;51.600;7.310;2024-01-06T00:51:02;13.68;;;7.50;;
14052;SDS011;7101;51.600;7.310;2024-01-06T00:53:30;17.75;;;9.30;;
14052;SDS011;7101;51.600;7.310;2024-01-06T00:55:57;12.55;;;8.27;;
14052;SDS011;7101;51.600;7.310;2024-01-06T00:58:24;14.27;;;8.50;;
14052;SDS011;7101;51.600;7.310;2024-01-06T01:00:51;10.55;;;6.82;;
14052;SDS011;7101;51.600;7.310;2024-01-06T01:03:18;10.70;;;7.38;;
14052;SDS011;7101;51.600;7.310;2024-01-06T01:05:45;11.73;;;6.68;;
14052;SDS011;7101;51.600;7.310;2024-01-06T01:08:11;10.77;;;7.15;;
14052;SDS011;7101;51.600;7.310;2024-01-06T01:10:40;12.07;;;6.63;;
14052;SDS011;7101;51.600;7.310;2024-01-06T01:13:06;10.70;;;6.85;;
14052;SDS011;7101;51.600;7.310;2024-01-06T01:15:33;11.25;;;7.38;;
14052;SDS011;7101;51.600;7.310;2024-01-06T01:18:00;9.85;;;6.38;;
14052;SDS011;7101;51.600;7.310;2024-01-06T01:20:27;11.93;;;7.20;;
14052;SDS011;7101;51.600;7.310;2024-01-06T01:22:53;11.63;;;6.88;;
14052;SDS011;7101;51.600;7.310;2024-01-06T01:25:20;9.80;;;6.50;;
14052;SDS011;7101;51.600;7.310;2024-01-06T01:27:48;10.48;;;6.70;;
14052;SDS011;7101;51.600;7.310;2024-01-06T01:30:15;13.48;;;7.10;;
14052;SDS011;7101;51.600;7.310;2024-01-06T01:32:42;10.65;;;6.65;;
14052;SDS011;7101;51.600;7.310;2024-01-06T01:35:09;12.98;;;7.38;;
14052;SDS011;7101;51.600;7.310;2024-01-06T01:37:36;11.45;;;7.10;;
14052;SDS011;7101;51.600;7.310;2024-01-06T01:40:03;10.23;;;6.63;;
14052;SDS011;7101;51.600;7.310;2024-01-06T01:42:30;11.50;;;6.45;;
14052;SDS011;7101;51.600;7.310;2024-01-06T01:44:58;11.07;;;6.95;;
14052;SDS011;7101;51.600;7.310;2024-01-06T01:47:25;12.52;;;7.38;;
14052;SDS011;7101;51.600;7.310;2024-01-06T01:49:53;12.10;;;7.40;;
14052;SDS011;7101;51.600;7.310;2024-01-06T01:52:21;12.00;;;7.38;;
14052;SDS011;7101;51.600;7.310;2024-01-06T01:54:48;13.50;;;7.38;;
14052;SDS011;7101;51.600;7.310;2024-01-06T01:57:15;13.68;;;7.25;;
14052;SDS011;7101;51.600;7.310;2024-01-06T01:59:43;12.57;;;7.35;;
14052;SDS011;7101;51.600;7.310;2024-01-06T02:02:11;11.73;;;7.38;;
14052;SDS011;7101;51.600;7.310;2024-01-06T02:04:38;13.10;;;6.32;;
14052;SDS011;7101;51.600;7.310;2024-01-06T02:07:05;13.13;;;7.85;;
14052;SDS011;7101;51.600;7.310;2024-01-06T02:09:32;11.82;;;7.60;;
14052;SDS011;7101;51.600;7.310;2024-01-06T02:11:59;13.27;;;8.10;;
14052;SDS011;7101;51.600;7.310;2024-01-06T02:14:26;14.68;;;8.30;;
14052;SDS011;7101;51.600;7.310;2024-01-06T02:16:52;15.23;;;8.02;;
14052;SDS011;7101;51.600;7.310;2024-01-06T02:19:20;14.20;;;7.72;;
14052;SDS011;7101;51.600;7.310;2024-01-06T02:21:50;12.18;;;7.30;;
14052;SDS011;7101;51.600;7.310;2024-01-06T02:24:18;11.82;;;7.43;;
14052;SDS011;7101;51.600;7.310;2024-01-06T02:26:44;10.23;;;6.47;;
14052;SDS011;7101;51.600;7.310;2024-01-06T02:29:11;12.05;;;7.03;;
14052;SDS011;7101;51.600;7.310;2024-01-06T02:31:38;11.02;;;6.53;;
14052;SDS011;7101;51.600;7.310;2024-01-06T02:34:05;11.00;;;6.28;;
14052;SDS011;7101;51.600;7.310;2024-01-06T02:36:32;11.55;;;6.28;;
14052;SDS011;7101;51.600;7.310;2024-01-06T02:39:00;11.82;;;6.35;;
14052;SDS011;7101;51.600;7.310;2024-01-06T02:41:27;13.00;;;6.03;;
14052;SDS011;7101;51.600;7.310;2024-01-06T02:43:53;10.80;;;5.65;;
14052;SDS011;7101;51.600;7.310;2024-01-06T02:46:22;10.73;;;5.88;;
14052;SDS011;7101;51.600;7.310;2024-01-06T02:48:49;9.98;;;5.63;;
14052;SDS011;7101;51.600;7.310;2024-01-06T02:51:15;10.75;;;5.68;;
14052;SDS011;7101;51.600;7.310;2024-01-06T02:53:42;11.43;;;6.30;;
14052;SDS011;7101;51.600;7.310;2024-01-06T02:56:11;12.00;;;5.90;;
14052;SDS011;7101;51.600;7.310;2024-01-06T02:58:38;9.65;;;5.85;;
14052;SDS011;7101;51.600;7.310;2024-01-06T03:01:04;10.30;;;5.25;;
14052;SDS011;7101;51.600;7.310;2024-01-06T03:03:31;9.82;;;5.03;;
14052;SDS011;7101;51.600;7.310;2024-01-06T03:05:58;10.70;;;5.63;;
14052;SDS011;7101;51.600;7.310;2024-01-06T03:08:25;11.75;;;5.90;;
14052;SDS011;7101;51.600;7.310;2024-01-06T03:10:52;10.15;;;5.53;;
14052;SDS011;7101;51.600;7.310;2024-01-06T03:13:20;10.38;;;5.40;;
14052;SDS011;7101;51.600;7.310;2024-01-06T03:15:47;9.68;;;5.50;;
14052;SDS011;7101;51.600;7.310;2024-01-06T03:18:15;10.43;;;5.78;;
14052;SDS011;7101;51.600;7.310;2024-01-06T03:20:42;10.00;;;5.43;;
14052;SDS011;7101;51.600;7.310;2024-01-06T03:23:09;9.48;;;5.38;;
14052;SDS011;7101;51.600;7.310;2024-01-06T03:25:36;14.35;;;6.43;;
14052;SDS011;7101;51.600;7.310;2024-01-06T03:28:03;10.13;;;5.57;;
14052;SDS011;7101;51.600;7.310;2024-01-06T03:30:31;9.90;;;5.72;;
14052;SDS011;7101;51.600;7.310;2024-01-06T03:32:58;9.63;;;5.30;;
14052;SDS011;7101;51.600;7.310;2024-01-06T03:35:25;11.10;;;5.78;;
14052;SDS011;7101;51.600;7.310;2024-01-06T03:37:51;10.52;;;5.82;;
14052;SDS011;7101;51.600;7.310;2024-01-06T03:40:18;11.32;;;5.15;;
14052;SDS011;7101;51.600;7.310;2024-01-06T03:42:45;11.20;;;5.72;;
14052;SDS011;7101;51.600;7.310;2024-01-06T03:45:13;12.88;;;6.22;;
14052;SDS011;7101;51.600;7.310;2024-01-06T03:47:41;10.98;;;6.10;;
14052;SDS011;7101;51.600;7.310;2024-01-06T03:50:08;10.75;;;5.68;;
14052;SDS011;7101;51.600;7.310;2024-01-06T03:52:37;10.15;;;5.90;;
14052;SDS011;7101;51.600;7.310;2024-01-06T03:55:05;8.13;;;4.85;;
14052;SDS011;7101;51.600;7.310;2024-01-06T03:57:32;9.45;;;5.07;;
14052;SDS011;7101;51.600;7.310;2024-01-06T03:59:59;11.35;;;5.45;;
14052;SDS011;7101;51.600;7.310;2024-01-06T04:02:25;12.45;;;6.03;;
14052;SDS011;7101;51.600;7.310;2024-01-06T04:04:57;9.82;;;5.45;;
14052;SDS011;7101;51.600;7.310;2024-01-06T04:07:23;11.15;;;5.75;;
14052;SDS011;7101;51.600;7.310;2024-01-06T04:09:50;11.98;;;6.43;;
14052;SDS011;7101;51.600;7.310;2024-01-06T04:12:17;12.40;;;6.47;;
14052;SDS011;7101;51.600;7.310;2024-01-06T04:14:44;9.80;;;5.75;;
14052;SDS011;7101;51.600;7.310;2024-01-06T04:17:09;14.77;;;6.22;;
14052;SDS011;7101;51.600;7.310;2024-01-06T04:19:36;10.80;;;5.07;;
14052;SDS011;7101;51.600;7.310;2024-01-06T04:22:04;12.00;;;6.43;;
14052;SDS011;7101;51.600;7.310;2024-01-06T04:24:31;11.05;;;5.60;;
14052;SDS011;7101;51.600;7.310;2024-01-06T04:27:02;11.60;;;6.30;;
14052;SDS011;7101;51.600;7.310;2024-01-06T04:29:29;13.20;;;6.47;;
14052;SDS011;7101;51.600;7.310;2024-01-06T04:31:56;10.80;;;5.85;;
14052;SDS011;7101;51.600;7.310;2024-01-06T04:34:23;12.10;;;6.40;;
14052;SDS011;7101;51.600;7.310;2024-01-06T04:36:49;14.95;;;7.10;;
14052;SDS011;7101;51.600;7.310;2024-01-06T04:39:17;12.02;;;6.38;;
14052;SDS011;7101;51.600;7.310;2024-01-06T04:41:44;11.80;;;6.18;;
14052;SDS011;7101;51.600;7.310;2024-01-06T04:44:11;14.18;;;6.90;;
14052;SDS011;7101;51.600;7.310;2024-01-06T04:46:38;13.52;;;7.03;;
14052;SDS011;7101;51.600;7.310;2024-01-06T04:49:04;17.90;;;7.78;;
14052;SDS011;7101;51.600;7.310;2024-01-06T04:51:34;16.13;;;7.57;;
14052;SDS011;7101;51.600;7.310;2024-01-06T04:54:01;14.80;;;7.35;;
14052;SDS011;7101;51.600;7.310;2024-01-06T04:56:29;15.52;;;7.18;;
14052;SDS011;7101;51.600;7.310;2024-01-06T04:58:56;14.27;;;7.22;;
14052;SDS011;7101;51.600;7.310;2024-01-06T05:01:23;15.68;;;6.50;;
14052;SDS011;7101;51.600;7.310;2024-01-06T05:03:50;14.00;;;7.07;;
14052;SDS011;7101;51.600;7.310;2024-01-06T05:06:17;16.75;;;7.18;;
14052;SDS011;7101;51.600;7.310;2024-01-06T05:08:44;14.32;;;6.60;;
14052;SDS011;7101;51.600;7.310;2024-01-06T05:11:11;12.98;;;6.78;;
14052;SDS011;7101;51.600;7.310;2024-01-06T05:13:39;15.15;;;7.05;;
14052;SDS011;7101;51.600;7.310;2024-01-06T05:16:07;17.33;;;7.65;;
14052;SDS011;7101;51.600;7.310;2024-01-06T05:18:34;13.52;;;6.88;;
14052;SDS011;7101;51.600;7.310;2024-01-06T05:21:01;13.68;;;6.93;;
14052;SDS011;7101;51.600;7.310;2024-01-06T05:23:28;16.75;;;7.78;;
14052;SDS011;7101;51.600;7.310;2024-01-06T05:25:55;13.02;;;6.95;;
14052;SDS011;7101;51.600;7.310;2024-01-06T05:28:22;11.43;;;5.53;;
14052;SDS011;7101;51.600;7.310;2024-01-06T05:30:50;13.55;;;7.15;;
14052;SDS011;7101;51.600;7.310;2024-01-06T05:33:17;15.45;;;7.00;;
14052;SDS011;7101;51.600;7.310;2024-01-06T05:35:44;13.52;;;6.78;;
14052;SDS011;7101;51.600;7.310;2024-01-06T05:38:10;10.70;;;6.05;;
14052;SDS011;7101;51.600;7.310;2024-01-06T05:40:38;16.27;;;6.90;;
14052;SDS011;7101;51.600;7.310;2024-01-06T05:43:05;13.05;;;7.68;;
14052;SDS011;7101;51.600;7.310;2024-01-06T05:45:32;12.73;;;6.65;;
14052;SDS011;7101;51.600;7.310;2024-01-06T05:48:05;14.48;;;6.88;;
14052;SDS011;7101;51.600;7.310;2024-01-06T05:50:35;13.07;;;6.63;;
14052;SDS011;7101;51.600;7.310;2024-01-06T05:53:02;13.90;;;6.63;;
14052;SDS011;7101;51.600;7.310;2024-01-06T05:55:28;13.77;;;7.05;;
14052;SDS011;7101;51.600;7.310;2024-01-06T05:57:55;12.68;;;6.47;;
14052;SDS011;7101;51.600;7.310;2024-01-06T06:00:22;10.75;;;6.07;;
14052;SDS011;7101;51.600;7.310;2024-01-06T06:02:49;12.10;;;6.28;;
14052;SDS011;7101;51.600;7.310;2024-01-06T06:05:17;11.93;;;6.10;;
14052;SDS011;7101;51.600;7.310;2024-01-06T06:07:45;11.90;;;6.20;;
14052;SDS011;7101;51.600;7.310;2024-01-06T06:10:12;13.25;;;5.97;;
14052;SDS011;7101;51.600;7.310;2024-01-06T06:12:41;14.20;;;7.05;;
14052;SDS011;7101;51.600;7.310;2024-01-06T06:15:08;11.60;;;6.07;;
14052;SDS011;7101;51.600;7.310;2024-01-06T06:17:35;16.58;;;6.22;;
14052;SDS011;7101;51.600;7.310;2024-01-06T06:20:02;9.85;;;5.45;;
14052;SDS011;7101;51.600;7.310;2024-01-06T06:22:32;11.82;;;5.65;;
14052;SDS011;7101;51.600;7.310;2024-01-06T06:24:59;12.38;;;6.13;;
14052;SDS011;7101;51.600;7.310;2024-01-06T06:27:26;11.85;;;5.72;;
14052;SDS011;7101;51.600;7.310;2024-01-06T06:29:54;12.70;;;6.05;;
14052;SDS011;7101;51.600;7.310;2024-01-06T06:32:21;13.35;;;6.95;;
14052;SDS011;7101;51.600;7.310;2024-01-06T06:34:48;14.40;;;5.93;;
14052;SDS011;7101;51.600;7.310;2024-01-06T06:37:15;9.52;;;5.82;;
14052;SDS011;7101;51.600;7.310;2024-01-06T06:39:43;10.55;;;5.72;;
14052;SDS011;7101;51.600;7.310;2024-01-06T06:42:10;10.02;;;5.47;;
14052;SDS011;7101;51.600;7.310;2024-01-06T06:44:37;10.27;;;5.75;;
14052;SDS011;7101;51.600;7.310;2024-01-06T06:47:04;10.38;;;5.22;;
14052;SDS011;7101;51.600;7.310;2024-01-06T06:49:31;16.98;;;6.50;;
14052;SDS011;7101;51.600;7.310;2024-01-06T06:51:57;12.05;;;6.28;;
14052;SDS011;7101;51.600;7.310;2024-01-06T06:54:24;9.73;;;5.25;;
14052;SDS011;7101;51.600;7.310;2024-01-06T06:56:52;13.32;;;5.97;;
14052;SDS011;7101;51.600;7.310;2024-01-06T06:59:19;13.70;;;6.68;;
14052;SDS011;7101;51.600;7.310;2024-01-06T07:01:46;12.43;;;6.05;;
14052;SDS011;7101;51.600;7.310;2024-01-06T07:04:13;13.63;;;6.20;;
14052;SDS011;7101;51.600;7.310;2024-01-06T07:06:40;12.73;;;6.68;;
14052;SDS011;7101;51.600;7.310;2024-01-06T07:09:07;14.85;;;6.32;;
14052;SDS011;7101;51.600;7.310;2024-01-06T07:11:33;12.75;;;5.97;;
14052;SDS011;7101;51.600;7.310;2024-01-06T07:14:02;14.63;;;7.18;;
14052;SDS011;7101;51.600;7.310;2024-01-06T07:16:29;13.52;;;6.60;;
14052;SDS011;7101;51.600;7.310;2024-01-06T07:18:56;12.48;;;6.43;;
14052;SDS011;7101;51.600;7.310;2024-01-06T07:21:22;17.70;;;7.63;;
14052;SDS011;7101;51.600;7.310;2024-01-06T07:23:49;16.42;;;7.65;;
14052;SDS011;7101;51.600;7.310;2024-01-06T07:26:16;17.70;;;6.80;;
14052;SDS011;7101;51.600;7.310;2024-01-06T07:28:43;13.70;;;6.65;;
14052;SDS011;7101;51.600;7.310;2024-01-06T07:31:11;14.90;;;6.95;;
14052;SDS011;7101;51.600;7.310;2024-01-06T07:33:38;12.20;;;6.00;;
14052;SDS011;7101;51.600;7.310;2024-01-06T07:36:05;13.48;;;6.43;;
14052;SDS011;7101;51.600;7.310;2024-01-06T07:38:32;12.45;;;5.78;;
14052;SDS011;7101;51.600;7.310;2024-01-06T07:40:59;11.75;;;5.80;;
14052;SDS011;7101;51.600;7.310;2024-01-06T07:43:26;13.05;;;5.20;;
14052;SDS011;7101;51.600;7.310;2024-01-06T07:45:53;16.67;;;6.70;;
14052;SDS011;7101;51.600;7.310;2024-01-06T07:48:21;12.27;;;5.50;;
14052;SDS011;7101;51.600;7.310;2024-01-06T07:50:48;12.48;;;5.88;;
14052;SDS011;7101;51.600;7.310;2024-01-06T07:53:16;11.68;;;5.63;;
14052;SDS011;7101;51.600;7.310;2024-01-06T07:55:43;12.02;;;5.82;;
14052;SDS011;7101;51.600;7.310;2024-01-06T07:58:09;14.75;;;6.13;;
14052;SDS011;7101;51.600;7.310;2024-01-06T08:00:37;11.43;;;6.18;;
14052;SDS011;7101;51.600;7.310;2024-01-06T08:03:03;12.73;;;5.15;;
14052;SDS011;7101;51.600;7.310;2024-01-06T08:05:32;15.57;;;6.30;;
14052;SDS011;7101;51.600;7.310;2024-01-06T08:07:59;12.40;;;5.50;;
14052;SDS011;7101;51.600;7.310;2024-01-06T08:10:26;12.85;;;5.15;;
14052;SDS011;7101;51.600;7.310;2024-01-06T08:12:52;80.90;;;21.33;;
14052;SDS011;7101;51.600;7.310;2024-01-06T08:15:19;44.33;;;12.82;;
14052;SDS011;7101;51.600;7.310;2024-01-06T08:17:46;9.00;;;4.57;;
14052;SDS011;7101;51.600;7.310;2024-01-06T08:20:13;11.20;;;5.30;;
14052;SDS011;7101;51.600;7.310;2024-01-06T08:22:41;12.85;;;4.65;;
14052;SDS011;7101;51.600;7.310;2024-01-06T08:25:09;9.57;;;4.80;;
14052;SDS011;7101;51.600;7.310;2024-01-06T08:27:36;8.82;;;4.20;;
14052;SDS011;7101;51.600;7.310;2024-01-06T08:30:03;9.70;;;4.13;;
14052;SDS011;7101;51.600;7.310;2024-01-06T08:32:31;7.22;;;3.92;;
14052;SDS011;7101;51.600;7.310;2024-01-06T08:34:58;7.55;;;3.60;;
14052;SDS011;7101;51.600;7.310;2024-01-06T08:37:24;9.80;;;4.07;;
14052;SDS011;7101;51.600;7.310;2024-01-06T08:39:54;8.82;;;4.15;;
14052;SDS011;7101;51.600;7.310;2024-01-06T08:42:21;8.63;;;3.90;;
14052;SDS011;7101;51.600;7.310;2024-01-06T08:44:49;7.78;;;3.70;;
14052;SDS011;7101;51.600;7.310;2024-01-06T08:47:16;10.75;;;3.80;;
14052;SDS011;7101;51.600;7.310;2024-01-06T08:49:42;6.95;;;3.13;;
14052;SDS011;7101;51.600;7.310;2024-01-06T08:52:12;5.70;;;2.88;;
14052;SDS011;7101;51.600;7.310;2024-01-06T08:54:39;8.45;;;3.15;;
14052;SDS011;7101;51.600;7.310;2024-01-06T08:57:07;5.15;;;2.67;;
14052;SDS011;7101;51.600;7.310;2024-01-06T08:59:34;5.30;;;2.70;;
14052;SDS011;7101;51.600;7.310;2024-01-06T09:02:02;3.83;;;2.50;;
14052;SDS011;7101;51.600;7.310;2024-01-06T09:04:29;6.13;;;2.47;;
14052;SDS011;7101;51.600;7.310;2024-01-06T09:06:55;6.60;;;2.88;;
14052;SDS011;7101;51.600;7.310;2024-01-06T09:09:23;5.78;;;2.53;;
14052;SDS011;7101;51.600;7.310;2024-01-06T09:11:50;4.85;;;2.42;;
14052;SDS011;7101;51.600;7.310;2024-01-06T09:14:19;5.72;;;2.47;;
14052;SDS011;7101;51.600;7.310;2024-01-06T09:16:45;6.32;;;3.03;;
14052;SDS011;7101;51.600;7.310;2024-01-06T09:19:12;6.18;;;3.25;;
14052;SDS011;7101;51.600;7.310;2024-01-06T09:21:39;5.90;;;3.08;;
14052;SDS011;7101;51.600;7.310;2024-01-06T09:24:06;5.25;;;2.85;;
14052;SDS011;7101;51.600;7.310;2024-01-06T09:26:33;5.10;;;2.85;;
14052;SDS011;7101;51.600;7.310;2024-01-06T09:29:00;8.60;;;3.90;;
14052;SDS011;7101;51.600;7.310;2024-01-06T09:31:28;6.07;;;3.28;;
14052;SDS011;7101;51.600;7.310;2024-01-06T09:33:55;6.40;;;3.45;;
14052;SDS011;7101;51.600;7.310;2024-01-06T09:36:26;6.25;;;3.25;;
14052;SDS011;7101;51.600;7.310;2024-01-06T09:38:53;6.68;;;3.33;;
14052;SDS011;7101;51.600;7.310;2024-01-06T09:41:20;5.63;;;2.90;;
14052;SDS011;7101;51.600;7.310;2024-01-06T09:43:47;7.53;;;3.40;;
14052;SDS011;7101;51.600;7.310;2024-01-06T09:46:15;7.18;;;3.45;;
14052;SDS011;7101;51.600;7.310;2024-01-06T09:48:48;6.68;;;3.78;;
14052;SDS011;7101;51.600;7.310;2024-01-06T09:51:19;8.65;;;4.28;;
14052;SDS011;7101;51.600;7.310;2024-01-06T09:53:47;16.08;;;4.97;;
14052;SDS011;7101;51.600;7.310;2024-01-06T09:56:15;9.45;;;4.60;;
14052;SDS011;7101;51.600;7.310;2024-01-06T09:58:43;9.68;;;4.57;;
14052;SDS011;7101;51.600;7.310;2024-01-06T10:01:11;8.57;;;4.50;;
14052;SDS011;7101;51.600;7.310;2024-01-06T10:03:40;8.77;;;4.18;;
14052;SDS011;7101;51.600;7.310;2024-01-06T10:06:08;11.98;;;5.43;;
14052;SDS011;7101;51.600;7.310;2024-01-06T10:08:35;9.27;;;4.90;;
14052;SDS011;7101;51.600;7.310;2024-01-06T10:11:01;11.90;;;6.18;;
14052;SDS011;7101;51.600;7.310;2024-01-06T10:13:29;9.60;;;5.00;;
14052;SDS011;7101;51.600;7.310;2024-01-06T10:15:56;11.35;;;5.57;;
14052;SDS011;7101;51.600;7.310;2024-01-06T10:18:23;11.23;;;5.75;;
14052;SDS011;7101;51.600;7.310;2024-01-06T10:20:52;13.77;;;5.38;;
14052;SDS011;7101;51.600;7.310;2024-01-06T10:23:20;9.18;;;5.40;;
14052;SDS011;7101;51.600;7.310;2024-01-06T10:25:51;12.23;;;5.30;;
14052;SDS011;7101;51.600;7.310;2024-01-06T10:28:18;13.05;;;6.35;;
14052;SDS011;7101;51.600;7.310;2024-01-06T10:30:46;15.45;;;6.90;;
14052;SDS011;7101;51.600;7.310;2024-01-06T10:33:13;11.63;;;5.68;;
14052;SDS011;7101;51.600;7.310;2024-01-06T10:35:40;11.75;;;5.88;;
14052;SDS011;7101;51.600;7.310;2024-01-06T10:38:08;12.63;;;6.05;;
14052;SDS011;7101;51.600;7.310;2024-01-06T10:40:37;14.52;;;6.85;;
14052;SDS011;7101;51.600;7.310;2024-01-06T10:43:04;12.18;;;5.97;;
14052;SDS011;7101;51.600;7.310;2024-01-06T10:45:32;12.63;;;6.35;;
14052;SDS011;7101;51.600;7.310;2024-01-06T10:47:59;11.90;;;6.10;;
14052;SDS011;7101;51.600;7.310;2024-01-06T10:50:28;15.90;;;7.25;;
14052;SDS011;7101;51.600;7.310;2024-01-06T10:52:56;17.05;;;7.38;;
14052;SDS011;7101;51.600;7.310;2024-01-06T10:55:23;14.88;;;6.35;;
14052;SDS011;7101;51.600;7.310;2024-01-06T10:57:54;17.73;;;6.45;;
14052;SDS011;7101;51.600;7.310;2024-01-06T11:00:22;15.90;;;6.68;;
14052;SDS011;7101;51.600;7.310;2024-01-06T11:02:49;16.25;;;6.88;;
14052;SDS011;7101;51.600;7.310;2024-01-06T11:05:18;16.00;;;6.72;;
14052;SDS011;7101;51.600;7.310;2024-01-06T11:07:46;15.05;;;6.28;;
14052;SDS011;7101;51.600;7.310;2024-01-06T11:10:17;12.73;;;6.47;;
14052;SDS011;7101;51.600;7.310;2024-01-06T11:12:45;14.57;;;6.72;;
14052;SDS011;7101;51.600;7.310;2024-01-06T11:15:26;13.90;;;6.30;;
14052;SDS011;7101;51.600;7.310;2024-01-06T11:18:05;15.07;;;6.35;;
14052;SDS011;7101;51.600;7.310;2024-01-06T11:20:33;14.18;;;7.38;;
14052;SDS011;7101;51.600;7.310;2024-01-06T11:25:46;16.42;;;7.38;;
14052;SDS011;7101;51.600;7.310;2024-01-06T11:28:12;13.48;;;6.78;;
14052;SDS011;7101;51.600;7.310;2024-01-06T11:30:41;16.88;;;7.28;;
14052;SDS011;7101;51.600;7.310;2024-01-06T11:33:08;18.70;;;7.30;;
14052;SDS011;7101;51.600;7.310;2024-01-06T11:35:36;14.15;;;7.47;;
14052;SDS011;7101;51.600;7.310;2024-01-06T11:38:06;18.25;;;7.43;;
14052;SDS011;7101;51.600;7.310;2024-01-06T11:40:33;16.27;;;7.10;;
14052;SDS011;7101;51.600;7.310;2024-01-06T11:43:02;14.65;;;7.32;;
14052;SDS011;7101;51.600;7.310;2024-01-06T11:45:31;13.57;;;7.35;;
14052;SDS011;7101;51.600;7.310;2024-01-06T11:48:00;14.65;;;7.15;;
14052;SDS011;7101;51.600;7.310;2024-01-06T11:50:28;12.35;;;6.22;;
14052;SDS011;7101;51.600;7.310;2024-01-06T11:52:55;13.60;;;6.75;;
14052;SDS011;7101;51.600;7.310;2024-01-06T11:55:22;12.43;;;6.70;;
14052;SDS011;7101;51.600;7.310;2024-01-06T11:57:53;12.23;;;6.03;;
14052;SDS011;7101;51.600;7.310;2024-01-06T12:00:19;13.32;;;6.28;;
14052;SDS011;7101;51.600;7.310;2024-01-06T12:02:46;11.82;;;5.65;;
14052;SDS011;7101;51.600;7.310;2024-01-06T12:05:15;11.90;;;5.47;;
14052;SDS011;7101;51.600;7.310;2024-01-06T12:07:43;10.52;;;5.18;;
14052;SDS011;7101;51.600;7.310;2024-01-06T12:10:19;13.00;;;5.65;;
14052;SDS011;7101;51.600;7.310;2024-01-06T12:12:54;11.20;;;5.65;;
14052;SDS011;7101;51.600;7.310;2024-01-06T12:15:23;10.43;;;4.82;;
14052;SDS011;7101;51.600;7.310;2024-01-06T12:17:50;10.52;;;5.53;;
14052;SDS011;7101;51.600;7.310;2024-01-06T12:20:18;9.30;;;5.03;;
14052;SDS011;7101;51.600;7.310;2024-01-06T12:22:45;10.65;;;5.05;;
14052;SDS011;7101;51.600;7.310;2024-01-06T12:25:12;11.02;;;5.18;;
14052;SDS011;7101;51.600;7.310;2024-01-06T12:27:42;11.93;;;5.82;;
14052;SDS011;7101;51.600;7.310;2024-01-06T12:30:11;9.32;;;5.32;;
14052;SDS011;7101;51.600;7.310;2024-01-06T12:32:40;11.02;;;6.00;;
14052;SDS011;7101;51.600;7.310;2024-01-06T12:35:08;13.35;;;6.57;;
14052;SDS011;7101;51.600;7.310;2024-01-06T12:37:37;12.82;;;5.63;;
14052;SDS011;7101;51.600;7.310;2024-01-06T12:40:04;11.88;;;6.05;;
14052;SDS011;7101;51.600;7.310;2024-01-06T12:42:32;11.35;;;6.18;;
14052;SDS011;7101;51.600;7.310;2024-01-06T12:44:59;12.95;;;5.95;;
14052;SDS011;7101;51.600;7.310;2024-01-06T12:47:26;10.38;;;5.20;;
14052;SDS011;7101;51.600;7.310;2024-01-06T12:49:53;11.90;;;5.82;;
14052;SDS011;7101;51.600;7.310;2024-01-06T12:52:19;12.75;;;5.75;;
14052;SDS011;7101;51.600;7.310;2024-01-06T12:54:47;11.50;;;5.05;;
14052;SDS011;7101;51.600;7.310;2024-01-06T12:57:14;11.15;;;4.65;;
14052;SDS011;7101;51.600;7.310;2024-01-06T12:59:41;12.25;;;4.65;;
14052;SDS011;7101;51.600;7.310;2024-01-06T13:02:09;10.18;;;4.85;;
14052;SDS011;7101;51.600;7.310;2024-01-06T13:04:36;12.30;;;4.85;;
14052;SDS011;7101;51.600;7.310;2024-01-06T13:07:03;10.57;;;4.53;;
14052;SDS011;7101;51.600;7.310;2024-01-06T13:09:31;7.53;;;4.22;;
14052;SDS011;7101;51.600;7.310;2024-01-06T13:12:00;9.35;;;4.28;;
14052;SDS011;7101;51.600;7.310;2024-01-06T13:14:27;9.35;;;3.85;;
14052;SDS011;7101;51.600;7.310;2024-01-06T13:16:55;7.45;;;3.90;;
14052;SDS011;7101;51.600;7.310;2024-01-06T13:19:22;8.63;;;4.32;;
14052;SDS011;7101;51.600;7.310;2024-01-06T13:21:49;7.20;;;3.80;;
14052;SDS011;7101;51.600;7.310;2024-01-06T13:24:16;9.35;;;4.05;;
14052;SDS011;7101;51.600;7.310;2024-01-06T13:26:43;6.80;;;3.35;;
14052;SDS011;7101;51.600;7.310;2024-01-06T13:29:12;8.52;;;4.22;;
14052;SDS011;7101;51.600;7.310;2024-01-06T13:31:39;8.32;;;3.67;;
14052;SDS011;7101;51.600;7.310;2024-01-06T13:34:06;9.20;;;3.95;;
14052;SDS011;7101;51.600;7.310;2024-01-06T13:36:34;11.88;;;4.28;;
14052;SDS011;7101;51.600;7.310;2024-01-06T13:39:01;8.65;;;3.88;;
14052;SDS011;7101;51.600;7.310;2024-01-06T13:41:29;10.45;;;4.53;;
14052;SDS011;7101;51.600;7.310;2024-01-06T13:43:56;7.45;;;3.47;;
14052;SDS011;7101;51.600;7.310;2024-01-06T13:46:24;9.15;;;3.97;;
14052;SDS011;7101;51.600;7.310;2024-01-06T13:48:51;10.05;;;3.78;;
14052;SDS011;7101;51.600;7.310;2024-01-06T13:51:18;9.70;;;4.53;;
14052;SDS011;7101;51.600;7.310;2024-01-06T13:53:45;9.52;;;4.22;;
14052;SDS011;7101;51.600;7.310;2024-01-06T13:56:12;7.85;;;4.28;;
14052;SDS011;7101;51.600;7.310;2024-01-06T13:58:38;8.65;;;4.20;;
14052;SDS011;7101;51.600;7.310;2024-01-06T14:01:05;8.60;;;3.92;;
14052;SDS011;7101;51.600;7.310;2024-01-06T14:03:36;6.80;;;3.45;;
14052;SDS011;7101;51.600;7.310;2024-01-06T14:06:03;6.78;;;4.07;;
14052;SDS011;7101;51.600;7.310;2024-01-06T14:08:31;9.45;;;4.22;;
14052;SDS011;7101;51.600;7.310;2024-01-06T14:10:58;9.20;;;4.47;;
14052;SDS011;7101;51.600;7.310;2024-01-06T14:13:25;10.02;;;4.32;;
14052;SDS011;7101;51.600;7.310;2024-01-06T14:15:52;7.57;;;3.95;;
14052;SDS011;7101;51.600;7.310;2024-01-06T14:18:19;8.80;;;4.30;;
14052;SDS011;7101;51.600;7.310;2024-01-06T14:20:47;9.07;;;4.40;;
14052;SDS011;7101;51.600;7.310;2024-01-06T14:23:13;10.27;;;4.45;;
14052;SDS011;7101;51.600;7.310;2024-01-06T14:25:41;7.10;;;4.10;;
14052;SDS011;7101;51.600;7.310;2024-01-06T14:28:07;11.95;;;5.25;;
14052;SDS011;7101;51.600;7.310;2024-01-06T14:30:34;10.27;;;4.57;;
14052;SDS011;7101;51.600;7.310;2024-01-06T14:33:01;10.45;;;4.85;;
14052;SDS011;7101;51.600;7.310;2024-01-06T14:35:28;10.20;;;4.68;;
14052;SDS011;7101;51.600;7.310;2024-01-06T14:37:56;12.02;;;5.50;;
14052;SDS011;7101;51.600;7.310;2024-01-06T14:40:23;11.38;;;5.10;;
14052;SDS011;7101;51.600;7.310;2024-01-06T14:42:49;12.40;;;5.55;;
14052;SDS011;7101;51.600;7.310;2024-01-06T14:45:16;12.07;;;5.47;;
14052;SDS011;7101;51.600;7.310;2024-01-06T14:47:43;14.68;;;5.70;;
14052;SDS011;7101;51.600;7.310;2024-01-06T14:50:10;10.85;;;5.25;;
14052;SDS011;7101;51.600;7.310;2024-01-06T14:52:37;13.27;;;5.20;;
14052;SDS011;7101;51.600;7.310;2024-01-06T14:55:06;14.57;;;5.50;;